Time;durP1;ratioP1;P1;durP2;ratioP2;P2;SDS_P1;SDS_P2;PMS_P1;PMS_P2;Temp;Humidity;BMP_temperature;BMP_pressure;BME280_temperature;BME280_humidity;BME280_pressure;Samples;Min_cycle;Max_cycle;Signal;HPM_P1;HPM_P2
2023/05/02 00:04:01;;;;;;;1.35;1.25;;;;;;;;;;10321490;28;20050;-83
2023/05/02 00:09:06;;;;;;;1.50;1.40;;;;;;;;;;10383462;28;20527;-82
2023/05/02 00:14:09;;;;;;;1.67;1.30;;;;;;;;;;10381026;28;20052;-84
2023/05/02 00:19:12;;;;;;;1.30;1.20;;;;;;;;;;10311907;28;20424;-83
2023/05/02 00:24:18;;;;;;;1.95;1.30;;;;;;;;;;10294007;28;20050;-83
2023/05/02 00:29:21;;;;;;;1.45;1.30;;;;;;;;;;10359740;28;20055;-82
2023/05/02 00:34:28;;;;;;;3.78;1.38;;;;;;;;;;10310325;28;20054;-83
2023/05/02 00:39:34;;;;;;;3.15;1.40;;;;;;;;;;10366925;28;20057;-84
2023/05/02 00:44:39;;;;;;;2.15;1.20;;;;;;;;;;10369566;28;20512;-82
2023/05/02 00:49:42;;;;;;;2.05;1.40;;;;;;;;;;10370171;28;20050;-83
2023/05/02 00:54:47;;;;;;;1.33;1.20;;;;;;;;;;10370957;28;20074;-84
2023/05/02 00:59:51;;;;;;;1.58;1.20;;;;;;;;;;10384618;28;20054;-84
2023/05/02 01:05:01;;;;;;;1.20;1.10;;;;;;;;;;10384744;28;20558;-84
2023/05/02 01:10:19;;;;;;;3.13;1.20;;;;;;;;;;10389836;28;20077;-83
2023/05/02 01:15:24;;;;;;;1.30;1.20;;;;;;;;;;10345652;28;20496;-84
2023/05/02 01:20:29;;;;;;;1.60;1.30;;;;;;;;;;10364508;28;20060;-84
2023/05/02 01:25:42;;;;;;;1.52;1.30;;;;;;;;;;10378160;28;20050;-83
2023/05/02 01:30:49;;;;;;;2.35;1.10;;;;;;;;;;10388687;28;20047;-83
2023/05/02 01:35:55;;;;;;;2.97;1.25;;;;;;;;;;10383914;28;20050;-84
2023/05/02 01:41:02;;;;;;;2.85;1.50;;;;;;;;;;10380734;28;20058;-83
2023/05/02 01:46:09;;;;;;;1.30;1.20;;;;;;;;;;10484371;22;20072;-84
2023/05/02 01:51:15;;;;;;;1.50;1.40;;;;;;;;;;10342045;28;20046;-84
2023/05/02 01:56:20;;;;;;;2.30;1.67;;;;;;;;;;10304174;28;20080;-84
2023/05/02 02:01:27;;;;;;;1.67;1.58;;;;;;;;;;10351247;28;20646;-84
2023/05/02 02:06:31;;;;;;;3.80;2.03;;;;;;;;;;10358989;28;20054;-85
2023/05/02 02:11:37;;;;;;;1.73;1.63;;;;;;;;;;10349505;28;20047;-84
2023/05/02 02:16:43;;;;;;;1.85;1.65;;;;;;;;;;10353825;28;20077;-84
2023/05/02 02:21:49;;;;;;;3.60;2.30;;;;;;;;;;10367023;28;20582;-84
2023/05/02 02:26:52;;;;;;;2.65;2.10;;;;;;;;;;10356169;28;20141;-84
2023/05/02 02:31:57;;;;;;;1.63;1.45;;;;;;;;;;10368134;28;20065;-84
2023/05/02 02:37:04;;;;;;;2.47;1.85;;;;;;;;;;10370084;28;20600;-85
2023/05/02 02:42:14;;;;;;;1.67;1.58;;;;;;;;;;10359302;28;20061;-84
2023/05/02 02:47:25;;;;;;;2.72;1.90;;;;;;;;;;10362194;28;20061;-85
2023/05/02 02:52:40;;;;;;;2.25;1.63;;;;;;;;;;10368147;28;20702;-84
2023/05/02 02:57:51;;;;;;;2.03;1.83;;;;;;;;;;10356862;28;20043;-84
2023/05/02 03:02:57;;;;;;;2.38;1.92;;;;;;;;;;10353402;28;20130;-84
2023/05/02 03:08:00;;;;;;;2.38;2.10;;;;;;;;;;10367362;28;20498;-84
2023/05/02 03:13:04;;;;;;;2.53;2.30;;;;;;;;;;10365932;28;20100;-86
2023/05/02 03:18:09;;;;;;;4.53;3.20;;;;;;;;;;10373381;28;20060;-87
2023/05/02 03:23:14;;;;;;;4.90;3.83;;;;;;;;;;10362817;28;20142;-89
2023/05/02 03:28:17;;;;;;;4.93;4.43;;;;;;;;;;10372543;28;20046;-85
2023/05/02 03:33:25;;;;;;;4.85;4.25;;;;;;;;;;10365877;28;20050;-85
2023/05/02 03:38:30;;;;;;;6.47;4.28;;;;;;;;;;10364804;28;20047;-88
2023/05/02 03:43:38;;;;;;;5.80;4.65;;;;;;;;;;10366308;28;20039;-85
2023/05/02 03:48:45;;;;;;;6.38;5.15;;;;;;;;;;10369060;28;20070;-88
2023/05/02 03:53:48;;;;;;;5.75;4.95;;;;;;;;;;10360307;28;20563;-86
2023/05/02 03:58:52;;;;;;;25.70;17.98;;;;;;;;;;10361257;28;20050;-86
2023/05/02 04:04:01;;;;;;;15.25;10.70;;;;;;;;;;10360010;28;20116;-85
2023/05/02 04:09:10;;;;;;;15.85;11.02;;;;;;;;;;10372424;28;20047;-87
2023/05/02 04:14:29;;;;;;;14.90;10.52;;;;;;;;;;10358586;28;20051;-86
2023/05/02 04:19:35;;;;;;;15.32;11.70;;;;;;;;;;10359656;28;20080;-88
2023/05/02 04:24:39;;;;;;;15.50;10.80;;;;;;;;;;10345189;28;20046;-88
2023/05/02 04:29:43;;;;;;;15.43;11.65;;;;;;;;;;10350025;28;20036;-88
2023/05/02 04:34:49;;;;;;;17.15;11.73;;;;;;;;;;10358572;28;20050;-88
2023/05/02 04:39:53;;;;;;;22.15;14.48;;;;;;;;;;10371002;28;20046;-88
2023/05/02 04:45:00;;;;;;;23.90;16.42;;;;;;;;;;10397417;28;20062;-89
2023/05/02 04:50:06;;;;;;;26.38;18.17;;;;;;;;;;10372964;28;20077;-88
2023/05/02 04:55:10;;;;;;;21.17;14.50;;;;;;;;;;10349632;28;20058;-88
2023/05/02 05:00:15;;;;;;;18.23;12.52;;;;;;;;;;10366806;28;20047;-87
2023/05/02 05:05:21;;;;;;;21.33;14.13;;;;;;;;;;10309002;28;20130;-90
2023/05/02 05:10:25;;;;;;;21.17;14.53;;;;;;;;;;10368409;28;20133;-87
2023/05/02 05:15:28;;;;;;;19.45;13.45;;;;;;;;;;10370423;28;20046;-88
2023/05/02 05:20:36;;;;;;;17.63;12.60;;;;;;;;;;10363012;28;20388;-87
2023/05/02 05:25:40;;;;;;;18.43;12.50;;;;;;;;;;10347383;28;20136;-87
2023/05/02 05:30:50;;;;;;;17.73;11.88;;;;;;;;;;10360542;28;20049;-87
2023/05/02 05:36:04;;;;;;;21.40;13.55;;;;;;;;;;10368370;28;20598;-87
2023/05/02 05:41:08;;;;;;;29.10;17.80;;;;;;;;;;10300247;28;20049;-85
2023/05/02 05:46:13;;;;;;;23.43;15.27;;;;;;;;;;10379721;28;20046;-85
2023/05/02 05:51:18;;;;;;;20.80;13.25;;;;;;;;;;10374002;28;20351;-85
2023/05/02 05:56:22;;;;;;;22.48;13.52;;;;;;;;;;10366197;28;20084;-85
2023/05/02 06:01:39;;;;;;;44.28;27.05;;;;;;;;;;10376182;28;20523;-86
2023/05/02 06:06:44;;;;;;;55.28;34.08;;;;;;;;;;10363999;28;20051;-85
2023/05/02 06:11:48;;;;;;;38.63;24.58;;;;;;;;;;10373246;28;20039;-86
2023/05/02 06:16:51;;;;;;;41.97;26.33;;;;;;;;;;10368704;28;20133;-85
2023/05/02 06:21:56;;;;;;;25.17;15.98;;;;;;;;;;10358431;28;20073;-85
2023/05/02 06:26:59;;;;;;;55.85;31.95;;;;;;;;;;10358718;28;20055;-85
2023/05/02 06:32:03;;;;;;;27.52;16.50;;;;;;;;;;10393513;28;20055;-85
2023/05/02 06:37:23;;;;;;;30.35;19.80;;;;;;;;;;10295685;28;20564;-87
2023/05/02 06:42:26;;;;;;;38.67;23.48;;;;;;;;;;10291285;28;20039;-85
2023/05/02 06:47:29;;;;;;;24.05;15.07;;;;;;;;;;10303443;28;20062;-85
2023/05/02 06:52:34;;;;;;;17.40;11.80;;;;;;;;;;10305316;28;20550;-88
2023/05/02 06:57:38;;;;;;;20.30;13.55;;;;;;;;;;10305361;28;20065;-86
2023/05/02 07:02:41;;;;;;;30.15;18.25;;;;;;;;;;10362184;28;20488;-88
2023/05/02 07:07:48;;;;;;;18.38;10.88;;;;;;;;;;10303101;28;20047;-87
2023/05/02 07:12:51;;;;;;;18.10;10.38;;;;;;;;;;10302210;28;20388;-89
2023/05/02 07:17:54;;;;;;;28.40;17.55;;;;;;;;;;10299943;28;20057;-86
2023/05/02 07:22:59;;;;;;;18.33;10.30;;;;;;;;;;10376536;28;20380;-87
2023/05/02 07:28:02;;;;;;;20.83;12.25;;;;;;;;;;10375018;28;20050;-87
2023/05/02 07:33:06;;;;;;;30.23;16.92;;;;;;;;;;10370173;28;20051;-89
2023/05/02 07:38:11;;;;;;;19.70;11.27;;;;;;;;;;10359966;28;20054;-87
2023/05/02 07:43:15;;;;;;;17.85;9.45;;;;;;;;;;10384764;22;20616;-81
2023/05/02 07:48:19;;;;;;;15.88;9.23;;;;;;;;;;10426199;28;20050;-82
2023/05/02 07:53:23;;;;;;;14.40;8.45;;;;;;;;;;10353355;28;20077;-82
2023/05/02 07:58:27;;;;;;;15.50;9.25;;;;;;;;;;10408633;28;20462;-82
2023/05/02 08:03:30;;;;;;;17.33;11.20;;;;;;;;;;10368926;28;20046;-82
2023/05/02 08:08:35;;;;;;;16.67;9.68;;;;;;;;;;10359636;28;20083;-82
2023/05/02 08:13:38;;;;;;;10.45;6.82;;;;;;;;;;10411312;28;20043;-81
2023/05/02 08:18:41;;;;;;;13.45;7.72;;;;;;;;;;10359892;28;20453;-81
2023/05/02 08:23:46;;;;;;;16.05;9.88;;;;;;;;;;10349057;28;20069;-82
2023/05/02 08:28:49;;;;;;;11.48;7.72;;;;;;;;;;10426275;28;20583;-82
2023/05/02 08:33:53;;;;;;;12.43;7.85;;;;;;;;;;10422433;28;20080;-82
2023/05/02 08:38:57;;;;;;;14.38;8.25;;;;;;;;;;10361220;28;20066;-82
2023/05/02 08:44:02;;;;;;;20.05;11.18;;;;;;;;;;10420183;28;20054;-81
2023/05/02 08:49:06;;;;;;;12.38;7.85;;;;;;;;;;10427136;28;20042;-82
2023/05/02 08:54:12;;;;;;;18.35;11.43;;;;;;;;;;10357429;28;20137;-81
2023/05/02 08:59:15;;;;;;;13.75;8.38;;;;;;;;;;10339232;28;20042;-81
2023/05/02 09:04:20;;;;;;;11.80;7.22;;;;;;;;;;10357194;28;20050;-81
2023/05/02 09:09:25;;;;;;;11.88;7.68;;;;;;;;;;10424023;28;20042;-81
2023/05/02 09:14:28;;;;;;;12.85;8.63;;;;;;;;;;10420428;28;20407;-82
2023/05/02 09:19:32;;;;;;;15.15;9.05;;;;;;;;;;10346251;28;20130;-82
2023/05/02 09:24:38;;;;;;;9.77;6.75;;;;;;;;;;10361762;28;20239;-82
2023/05/02 09:29:44;;;;;;;11.10;7.25;;;;;;;;;;10429514;28;20043;-81
2023/05/02 09:35:05;;;;;;;11.45;7.57;;;;;;;;;;10365721;28;20054;-81
2023/05/02 09:40:11;;;;;;;15.57;10.13;;;;;;;;;;10361534;28;20085;-81
2023/05/02 09:45:21;;;;;;;7.25;5.20;;;;;;;;;;10420700;28;20399;-81
2023/05/02 09:50:35;;;;;;;10.07;7.15;;;;;;;;;;10421155;28;20047;-82
2023/05/02 09:55:40;;;;;;;7.00;5.20;;;;;;;;;;10397202;28;20054;-82
2023/05/02 10:00:45;;;;;;;8.27;5.70;;;;;;;;;;10338321;28;20056;-82
2023/05/02 10:05:48;;;;;;;7.55;4.47;;;;;;;;;;10345571;28;20042;-82
2023/05/02 10:10:54;;;;;;;10.07;6.28;;;;;;;;;;10380790;28;20062;-82
2023/05/02 10:16:00;;;;;;;7.03;4.60;;;;;;;;;;10414327;28;20054;-82
2023/05/02 10:21:08;;;;;;;5.88;3.72;;;;;;;;;;10427665;28;20077;-82
2023/05/02 10:26:20;;;;;;;4.78;3.25;;;;;;;;;;10405834;28;20135;-82
2023/05/02 10:31:23;;;;;;;8.23;5.93;;;;;;;;;;10329763;28;20048;-82
2023/05/02 10:36:28;;;;;;;6.07;4.40;;;;;;;;;;10406226;28;20076;-82
2023/05/02 10:41:35;;;;;;;7.20;5.10;;;;;;;;;;10379377;28;20054;-84
2023/05/02 10:46:40;;;;;;;7.10;4.90;;;;;;;;;;10377468;28;20051;-82
2023/05/02 10:51:44;;;;;;;7.70;4.13;;;;;;;;;;10382610;28;20089;-82
2023/05/02 10:57:06;;;;;;;6.60;4.15;;;;;;;;;;10323571;28;20131;-82
2023/05/02 11:02:42;;;;;;;2.97;2.45;;;;;;;;;;10331240;28;20046;-81
2023/05/02 11:07:45;;;;;;;5.30;3.40;;;;;;;;;;10360255;28;20114;-81
2023/05/02 11:12:52;;;;;;;3.08;2.15;;;;;;;;;;10405304;28;20042;-81
2023/05/02 11:18:02;;;;;;;3.28;2.60;;;;;;;;;;10348653;28;20408;-83
2023/05/02 11:23:24;;;;;;;4.72;2.92;;;;;;;;;;10337709;28;20057;-83
2023/05/02 11:28:49;;;;;;;3.13;2.28;;;;;;;;;;10350317;28;20058;-82
2023/05/02 11:33:56;;;;;;;3.95;3.35;;;;;;;;;;10342673;28;20422;-81
2023/05/02 11:39:00;;;;;;;4.97;3.78;;;;;;;;;;10400010;28;20054;-83
2023/05/02 11:44:05;;;;;;;5.43;3.92;;;;;;;;;;10328994;28;20065;-83
2023/05/02 11:49:11;;;;;;;6.30;4.30;;;;;;;;;;10337932;28;20628;-83
2023/05/02 11:54:21;;;;;;;7.60;5.03;;;;;;;;;;10389472;28;20064;-83
2023/05/02 11:59:26;;;;;;;6.55;4.95;;;;;;;;;;10380363;28;20046;-83
2023/05/02 12:04:30;;;;;;;8.18;5.80;;;;;;;;;;10364069;28;20050;-83
2023/05/02 12:09:33;;;;;;;6.78;5.00;;;;;;;;;;10346902;28;20046;-83
2023/05/02 12:14:40;;;;;;;4.57;3.75;;;;;;;;;;10411400;28;20054;-82
2023/05/02 12:19:43;;;;;;;3.92;3.40;;;;;;;;;;10414513;28;20046;-83
2023/05/02 12:24:48;;;;;;;5.18;4.35;;;;;;;;;;10333727;28;20526;-83
2023/05/02 12:29:53;;;;;;;5.43;4.00;;;;;;;;;;10322968;28;20060;-82
2023/05/02 12:34:57;;;;;;;2.70;2.42;;;;;;;;;;10339402;28;20056;-82
2023/05/02 12:40:00;;;;;;;3.92;2.40;;;;;;;;;;10406121;28;20065;-83
2023/05/02 12:45:16;;;;;;;3.55;2.78;;;;;;;;;;10336886;28;20125;-85
2023/05/02 12:50:19;;;;;;;2.42;1.80;;;;;;;;;;10399916;28;20046;-85
2023/05/02 12:55:24;;;;;;;2.70;2.17;;;;;;;;;;10329733;28;20051;-84
2023/05/02 13:00:29;;;;;;;3.58;2.88;;;;;;;;;;10332942;28;20084;-84
2023/05/02 13:05:32;;;;;;;5.43;2.53;;;;;;;;;;10399007;28;20186;-85
2023/05/02 13:10:35;;;;;;;5.05;3.42;;;;;;;;;;10402131;28;20046;-86
2023/05/02 13:15:40;;;;;;;5.55;4.05;;;;;;;;;;10339963;28;20053;-83
2023/05/02 13:20:43;;;;;;;6.53;3.78;;;;;;;;;;10420078;28;20046;-84
2023/05/02 13:25:46;;;;;;;6.90;3.95;;;;;;;;;;10345321;28;20242;-83
2023/05/02 13:30:51;;;;;;;6.13;3.72;;;;;;;;;;10342151;28;20050;-83
2023/05/02 13:35:54;;;;;;;5.97;2.85;;;;;;;;;;10350643;28;20457;-84
2023/05/02 13:40:58;;;;;;;4.63;2.60;;;;;;;;;;10407058;28;20051;-85
2023/05/02 13:51:34;;;;;;;3.13;2.08;;;;;;;;;;10814004;22;20055;-85
2023/05/02 13:56:38;;;;;;;3.33;2.25;;;;;;;;;;10280725;28;20451;-89
2023/05/02 14:01:42;;;;;;;1.90;1.73;;;;;;;;;;10280621;28;20042;-85
2023/05/02 14:06:47;;;;;;;4.40;2.10;;;;;;;;;;10280787;28;20047;-86
2023/05/02 14:11:50;;;;;;;1.43;1.30;;;;;;;;;;10272636;28;20134;-85
2023/05/02 14:16:54;;;;;;;1.77;1.02;;;;;;;;;;10279674;28;20142;-85
2023/05/02 14:21:59;;;;;;;1.55;1.20;;;;;;;;;;10276326;28;20047;-85
2023/05/02 14:27:03;;;;;;;2.58;1.40;;;;;;;;;;10278724;28;20627;-86
2023/05/02 14:32:07;;;;;;;1.95;1.20;;;;;;;;;;10260694;28;20062;-87
2023/05/02 14:37:11;;;;;;;5.10;2.30;;;;;;;;;;10264722;28;20075;-86
2023/05/02 14:42:15;;;;;;;3.83;2.38;;;;;;;;;;10276720;28;20479;-87
2023/05/02 14:47:18;;;;;;;3.58;2.22;;;;;;;;;;10285008;28;20043;-85
2023/05/02 14:52:23;;;;;;;3.10;1.98;;;;;;;;;;10272665;28;20058;-85
2023/05/02 14:57:27;;;;;;;2.60;2.33;;;;;;;;;;10264261;28;20079;-86
2023/05/02 15:02:30;;;;;;;2.97;2.10;;;;;;;;;;10307993;28;20479;-89
2023/05/02 15:07:35;;;;;;;4.72;2.20;;;;;;;;;;10261020;28;20136;-85
2023/05/02 15:12:39;;;;;;;2.20;1.30;;;;;;;;;;10305065;28;20059;-88
2023/05/02 15:17:42;;;;;;;3.42;2.15;;;;;;;;;;10269208;28;20092;-88
2023/05/02 15:22:47;;;;;;;3.65;2.33;;;;;;;;;;10270060;28;20085;-85
2023/05/02 15:27:50;;;;;;;8.02;3.78;;;;;;;;;;10276395;28;20130;-85
2023/05/02 15:32:54;;;;;;;3.88;2.35;;;;;;;;;;10259815;28;20046;-86
2023/05/02 15:37:59;;;;;;;3.38;2.45;;;;;;;;;;10285358;28;20619;-85
2023/05/02 15:43:02;;;;;;;4.10;2.22;;;;;;;;;;10263979;28;20759;-85
2023/05/02 15:48:06;;;;;;;2.83;1.55;;;;;;;;;;10259032;28;20591;-88
2023/05/02 15:53:11;;;;;;;2.42;1.63;;;;;;;;;;10248907;28;20082;-87
2023/05/02 15:58:15;;;;;;;2.63;1.58;;;;;;;;;;10276337;28;20054;-89
2023/05/02 16:03:18;;;;;;;2.85;1.98;;;;;;;;;;10273126;28;20050;-89
2023/05/02 16:08:23;;;;;;;2.20;1.55;;;;;;;;;;10274997;28;20420;-85
2023/05/02 16:13:27;;;;;;;2.20;2.00;;;;;;;;;;10273232;28;20059;-88
2023/05/02 16:18:30;;;;;;;2.33;1.88;;;;;;;;;;10257839;28;20409;-89
2023/05/02 16:23:35;;;;;;;2.97;1.70;;;;;;;;;;10268014;28;20050;-83
2023/05/02 16:28:39;;;;;;;2.47;1.60;;;;;;;;;;10250822;28;20051;-83
2023/05/02 16:33:43;;;;;;;1.50;1.25;;;;;;;;;;10271710;28;20059;-83
2023/05/02 16:38:47;;;;;;;2.33;1.60;;;;;;;;;;10266530;28;20047;-83
2023/05/02 16:43:51;;;;;;;2.33;1.35;;;;;;;;;;10260868;28;20054;-83
2023/05/02 16:48:54;;;;;;;2.13;1.40;;;;;;;;;;10250383;28;20129;-83
2023/05/02 16:53:59;;;;;;;3.03;1.50;;;;;;;;;;10246332;28;20404;-84
2023/05/02 16:59:03;;;;;;;2.17;1.43;;;;;;;;;;10249831;28;20133;-83
2023/05/02 17:04:06;;;;;;;3.92;2.33;;;;;;;;;;10255647;28;20046;-83
2023/05/02 17:09:11;;;;;;;1.63;1.23;;;;;;;;;;10266476;28;20046;-83
2023/05/02 17:14:14;;;;;;;3.17;1.75;;;;;;;;;;10283464;28;20044;-88
2023/05/02 17:19:18;;;;;;;2.45;1.60;;;;;;;;;;10280281;28;20039;-86
2023/05/02 17:24:23;;;;;;;4.85;1.92;;;;;;;;;;10271284;28;20053;-85
2023/05/02 17:29:26;;;;;;;2.80;1.67;;;;;;;;;;10279224;28;20058;-85
2023/05/02 17:34:32;;;;;;;2.85;1.50;;;;;;;;;;10280186;28;20513;-86
2023/05/02 17:39:37;;;;;;;3.97;1.70;;;;;;;;;;10280085;28;20121;-89
2023/05/02 17:44:40;;;;;;;2.88;1.63;;;;;;;;;;10280491;28;20124;-85
2023/05/02 17:49:44;;;;;;;1.45;1.17;;;;;;;;;;10260771;28;20050;-89
2023/05/02 17:54:49;;;;;;;2.15;1.33;;;;;;;;;;10274599;28;20097;-89
2023/05/02 17:59:57;;;;;;;1.58;1.10;;;;;;;;;;10312781;28;20057;-85
2023/05/02 18:05:02;;;;;;;2.47;1.35;;;;;;;;;;10284695;28;20090;-88
2023/05/02 18:10:08;;;;;;;3.40;1.40;;;;;;;;;;10294353;28;20070;-86
2023/05/02 18:15:12;;;;;;;4.32;1.45;;;;;;;;;;10329026;28;20740;-86
2023/05/02 18:20:15;;;;;;;2.38;1.50;;;;;;;;;;10331400;28;20058;-86
2023/05/02 18:25:23;;;;;;;2.90;1.58;;;;;;;;;;10292093;28;20759;-85
2023/05/02 18:30:26;;;;;;;3.38;1.75;;;;;;;;;;10308795;28;20051;-85
2023/05/02 18:35:30;;;;;;;3.78;1.60;;;;;;;;;;10255695;28;20790;-85
2023/05/02 18:40:35;;;;;;;3.63;1.63;;;;;;;;;;10276593;28;20054;-87
2023/05/02 18:45:39;;;;;;;2.45;1.63;;;;;;;;;;10272036;28;20035;-86
2023/05/02 18:50:43;;;;;;;6.13;2.33;;;;;;;;;;10278049;28;20046;-85
2023/05/02 18:55:50;;;;;;;3.22;1.80;;;;;;;;;;10280418;28;20047;-88
2023/05/02 19:00:54;;;;;;;4.30;1.80;;;;;;;;;;10256209;28;20050;-86
2023/05/02 19:05:57;;;;;;;3.67;1.85;;;;;;;;;;10349552;28;20103;-85
2023/05/02 19:11:03;;;;;;;3.20;1.65;;;;;;;;;;10296859;28;20047;-86
2023/05/02 19:16:11;;;;;;;1.63;1.33;;;;;;;;;;10280064;28;20047;-85
2023/05/02 19:21:14;;;;;;;2.60;1.88;;;;;;;;;;10263821;28;20116;-83
2023/05/02 19:26:19;;;;;;;4.15;2.17;;;;;;;;;;10265022;28;20146;-83
2023/05/02 19:31:23;;;;;;;3.90;2.40;;;;;;;;;;10282219;28;20052;-84
2023/05/02 19:36:27;;;;;;;3.95;1.88;;;;;;;;;;10275008;28;20037;-84
2023/05/02 19:41:32;;;;;;;3.53;2.10;;;;;;;;;;10283795;28;20063;-86
2023/05/02 19:46:36;;;;;;;4.07;2.25;;;;;;;;;;10296772;28;20590;-85
2023/05/02 19:51:39;;;;;;;2.03;1.80;;;;;;;;;;10282914;28;20283;-85
2023/05/02 19:56:47;;;;;;;4.25;1.95;;;;;;;;;;10260316;28;20046;-86
2023/05/02 20:01:51;;;;;;;2.05;1.77;;;;;;;;;;10283392;28;20514;-85
2023/05/02 20:06:57;;;;;;;2.50;2.05;;;;;;;;;;10290978;28;20043;-86
2023/05/02 20:12:04;;;;;;;4.13;1.90;;;;;;;;;;10295551;28;20420;-88
2023/05/02 20:17:08;;;;;;;2.70;1.88;;;;;;;;;;10297059;28;20041;-86
2023/05/02 20:22:14;;;;;;;3.67;2.20;;;;;;;;;;10250275;28;20051;-86
2023/05/02 20:32:57;;;;;;;4.20;2.70;;;;;;;;;;10279987;23;20049;-80
2023/05/02 20:38:06;;;;;;;3.85;2.08;;;;;;;;;;10078368;28;20076;-80
2023/05/02 20:43:10;;;;;;;4.18;2.63;;;;;;;;;;10122306;29;20057;-79
2023/05/02 20:48:39;;;;;;;7.25;3.13;;;;;;;;;;10112129;29;20049;-79
2023/05/02 20:53:43;;;;;;;4.85;2.95;;;;;;;;;;10026435;28;20644;-90
2023/05/02 20:58:47;;;;;;;6.35;3.22;;;;;;;;;;10029195;29;20522;-88
2023/05/02 21:03:55;;;;;;;5.22;3.13;;;;;;;;;;10046950;29;20522;-87
2023/05/02 21:09:00;;;;;;;5.28;2.75;;;;;;;;;;10031600;29;20061;-87
2023/05/02 21:14:04;;;;;;;4.22;2.78;;;;;;;;;;10044570;29;20534;-87
2023/05/02 21:19:09;;;;;;;4.00;2.85;;;;;;;;;;10028935;29;20065;-86
2023/05/02 21:24:13;;;;;;;4.85;2.75;;;;;;;;;;10045509;29;20049;-89
2023/05/02 21:29:17;;;;;;;4.03;3.00;;;;;;;;;;10033049;29;20048;-86
2023/05/02 21:34:22;;;;;;;3.90;2.70;;;;;;;;;;10024524;29;20056;-86
2023/05/02 21:39:29;;;;;;;5.15;2.40;;;;;;;;;;10079226;29;20160;-86
2023/05/02 21:44:34;;;;;;;5.65;3.45;;;;;;;;;;10047562;28;20459;-87
2023/05/02 21:49:40;;;;;;;4.93;3.30;;;;;;;;;;10070908;29;20507;-87
2023/05/02 21:54:48;;;;;;;3.88;2.65;;;;;;;;;;10100522;29;20129;-86
2023/05/02 21:59:55;;;;;;;3.58;2.33;;;;;;;;;;10081293;29;20500;-88
2023/05/02 22:05:00;;;;;;;3.50;2.42;;;;;;;;;;10025943;29;20129;-87
2023/05/02 22:10:05;;;;;;;4.43;2.53;;;;;;;;;;10093421;28;20714;-88
2023/05/02 22:15:16;;;;;;;5.07;2.78;;;;;;;;;;10088708;29;20400;-87
2023/05/02 22:20:23;;;;;;;3.20;2.40;;;;;;;;;;10078995;29;20057;-87
2023/05/02 22:25:29;;;;;;;4.15;2.15;;;;;;;;;;10034566;29;20050;-87
2023/05/02 22:30:33;;;;;;;3.45;2.72;;;;;;;;;;10042527;29;20057;-88
2023/05/02 22:35:38;;;;;;;5.85;2.35;;;;;;;;;;10042445;29;20077;-88
2023/05/02 22:40:42;;;;;;;4.25;2.38;;;;;;;;;;10044063;29;20057;-88
2023/05/02 22:45:46;;;;;;;4.30;2.85;;;;;;;;;;10098209;28;20147;-88
2023/05/02 22:50:50;;;;;;;4.88;2.58;;;;;;;;;;10025009;29;20060;-85
2023/05/02 22:55:54;;;;;;;5.93;2.70;;;;;;;;;;10023109;29;20049;-86
2023/05/02 23:00:58;;;;;;;5.13;2.40;;;;;;;;;;10021460;29;20052;-86
2023/05/02 23:06:05;;;;;;;3.97;2.83;;;;;;;;;;10021866;29;20104;-86
2023/05/02 23:11:08;;;;;;;5.18;2.95;;;;;;;;;;10093138;28;20067;-86
2023/05/02 23:16:12;;;;;;;4.75;3.17;;;;;;;;;;10080110;29;20082;-85
2023/05/02 23:21:17;;;;;;;5.35;2.88;;;;;;;;;;10010134;29;20045;-85
2023/05/02 23:26:21;;;;;;;4.82;2.90;;;;;;;;;;10095062;29;20128;-85
2023/05/02 23:31:24;;;;;;;4.60;2.95;;;;;;;;;;10089881;29;20042;-85
2023/05/02 23:36:30;;;;;;;3.95;2.72;;;;;;;;;;10048998;28;20527;-85
2023/05/02 23:41:37;;;;;;;4.20;2.40;;;;;;;;;;10034502;29;20136;-85
2023/05/02 23:46:42;;;;;;;4.03;2.60;;;;;;;;;;10048069;28;20061;-86
2023/05/02 23:51:47;;;;;;;5.00;2.47;;;;;;;;;;10035809;28;20141;-85
2023/05/02 23:56:53;;;;;;;3.08;2.53;;;;;;;;;;10118821;29;20092;-86
